Time;durP1;ratioP1;P1;durP2;ratioP2;P2;SDS_P1;SDS_P2;PMS_P1;PMS_P2;Temp;Humidity;BMP_temperature;BMP_pressure;BME280_temperature;BME280_humidity;BME280_pressure;Samples;Min_cycle;Max_cycle;Signal;HPM_P1;HPM_P2
2022/07/07 00:02:08;;;;;;;2.20;2.00;;;;;;;;;;5112903;28;20040;-56
2022/07/07 00:04:34;;;;;;;6.90;2.30;;;;;;;;;;5113098;28;20047;-57
2022/07/07 00:06:59;;;;;;;3.95;2.20;;;;;;;;;;5112861;28;20474;-41
2022/07/07 00:09:25;;;;;;;2.40;2.20;;;;;;;;;;5112752;28;20027;-40
2022/07/07 00:11:51;;;;;;;5.45;2.05;;;;;;;;;;5112923;28;20023;-36
2022/07/07 00:14:16;;;;;;;3.20;1.90;;;;;;;;;;5112926;28;20356;-36
2022/07/07 00:16:42;;;;;;;3.47;2.10;;;;;;;;;;5112701;28;20024;-36
2022/07/07 00:19:07;;;;;;;3.65;2.00;;;;;;;;;;5112903;28;20027;-36
2022/07/07 00:21:33;;;;;;;1.88;1.77;;;;;;;;;;5112350;28;20044;-36
2022/07/07 00:23:58;;;;;;;5.13;1.98;;;;;;;;;;5112792;28;20141;-37
2022/07/07 00:26:24;;;;;;;2.13;1.90;;;;;;;;;;5112281;28;20028;-37
2022/07/07 00:28:49;;;;;;;6.15;2.40;;;;;;;;;;5112726;28;20063;-37
2022/07/07 00:31:15;;;;;;;2.20;2.00;;;;;;;;;;5112606;28;20031;-37
2022/07/07 00:33:40;;;;;;;2.50;2.20;;;;;;;;;;5112651;28;20437;-36
2022/07/07 00:36:07;;;;;;;2.40;2.20;;;;;;;;;;5112483;28;20031;-36
2022/07/07 00:38:33;;;;;;;2.83;2.30;;;;;;;;;;5112199;28;20111;-37
2022/07/07 00:40:58;;;;;;;7.93;2.15;;;;;;;;;;5112298;28;20031;-37
2022/07/07 00:43:24;;;;;;;7.32;2.28;;;;;;;;;;5111557;28;20102;-36
2022/07/07 00:45:50;;;;;;;3.95;2.10;;;;;;;;;;5112360;28;20228;-36
2022/07/07 00:48:18;;;;;;;2.20;2.03;;;;;;;;;;5110646;28;20023;-37
2022/07/07 00:50:45;;;;;;;2.30;2.10;;;;;;;;;;5112042;28;20040;-36
2022/07/07 00:53:11;;;;;;;2.75;2.10;;;;;;;;;;5112134;27;20028;-36
2022/07/07 00:55:39;;;;;;;2.28;2.08;;;;;;;;;;5112193;28;20024;-36
2022/07/07 00:58:05;;;;;;;5.05;2.30;;;;;;;;;;5111787;28;20023;-36
2022/07/07 01:00:30;;;;;;;5.07;2.10;;;;;;;;;;5111750;28;20038;-36
2022/07/07 01:02:56;;;;;;;2.95;2.20;;;;;;;;;;5111832;28;20031;-38
2022/07/07 01:05:23;;;;;;;3.40;2.10;;;;;;;;;;5111777;28;20092;-36
2022/07/07 01:07:51;;;;;;;4.70;2.30;;;;;;;;;;5112177;28;20023;-37
2022/07/07 01:10:16;;;;;;;2.00;1.90;;;;;;;;;;5111897;28;20092;-37
2022/07/07 01:12:42;;;;;;;2.42;2.20;;;;;;;;;;5111843;28;20471;-36
2022/07/07 01:15:12;;;;;;;2.00;1.90;;;;;;;;;;5111716;28;20478;-38
2022/07/07 01:17:39;;;;;;;2.38;2.15;;;;;;;;;;5111617;28;20542;-39
2022/07/07 01:20:07;;;;;;;3.25;2.22;;;;;;;;;;5112294;28;20019;-36
2022/07/07 01:22:37;;;;;;;2.50;2.17;;;;;;;;;;5112721;28;20056;-36
2022/07/07 01:25:04;;;;;;;2.38;2.15;;;;;;;;;;5113271;28;20053;-36
2022/07/07 01:27:30;;;;;;;2.88;2.00;;;;;;;;;;5111782;28;20564;-36
2022/07/07 01:29:57;;;;;;;2.40;2.10;;;;;;;;;;5112976;28;20056;-36
2022/07/07 01:32:23;;;;;;;4.13;2.25;;;;;;;;;;5113216;28;20054;-37
2022/07/07 01:34:50;;;;;;;2.67;1.90;;;;;;;;;;5112942;28;20015;-37
2022/07/07 01:37:17;;;;;;;2.78;2.40;;;;;;;;;;5112905;28;20024;-36
2022/07/07 01:39:43;;;;;;;3.17;2.00;;;;;;;;;;5113198;28;20352;-37
2022/07/07 01:42:10;;;;;;;2.38;1.90;;;;;;;;;;5113076;28;20020;-36
2022/07/07 01:44:40;;;;;;;2.70;2.40;;;;;;;;;;5113222;28;20378;-37
2022/07/07 01:47:07;;;;;;;2.45;2.00;;;;;;;;;;5113154;28;20028;-37
2022/07/07 01:49:33;;;;;;;3.65;2.10;;;;;;;;;;5113130;28;20016;-37
2022/07/07 01:52:00;;;;;;;2.03;1.92;;;;;;;;;;5113071;28;20073;-41
2022/07/07 01:54:29;;;;;;;2.40;2.20;;;;;;;;;;5114776;28;20154;-43
2022/07/07 01:56:55;;;;;;;5.70;2.33;;;;;;;;;;5117027;28;20493;-43
2022/07/07 01:59:21;;;;;;;2.38;2.17;;;;;;;;;;5116856;28;20024;-44
2022/07/07 02:01:46;;;;;;;2.28;2.08;;;;;;;;;;5117090;28;20023;-44
2022/07/07 02:04:11;;;;;;;2.25;2.10;;;;;;;;;;5116857;28;20485;-43
2022/07/07 02:06:38;;;;;;;3.33;2.38;;;;;;;;;;5117043;28;20028;-45
2022/07/07 02:09:04;;;;;;;3.45;1.90;;;;;;;;;;5116966;28;20363;-49
2022/07/07 02:11:30;;;;;;;2.25;2.13;;;;;;;;;;5116869;28;20019;-46
2022/07/07 02:13:55;;;;;;;2.40;2.20;;;;;;;;;;5116921;28;20030;-46
2022/07/07 02:16:23;;;;;;;2.85;2.30;;;;;;;;;;5116563;28;20055;-51
2022/07/07 02:18:53;;;;;;;4.00;2.30;;;;;;;;;;5116835;28;20057;-52
2022/07/07 02:21:20;;;;;;;2.97;2.60;;;;;;;;;;5116348;28;20048;-51
2022/07/07 02:23:47;;;;;;;2.40;2.20;;;;;;;;;;5116660;28;20133;-53
2022/07/07 02:26:12;;;;;;;6.85;2.50;;;;;;;;;;5116612;28;20102;-53
2022/07/07 02:28:41;;;;;;;2.20;2.10;;;;;;;;;;5116555;28;20502;-48
2022/07/07 02:31:08;;;;;;;2.63;2.40;;;;;;;;;;5116231;28;20035;-48
2022/07/07 02:33:33;;;;;;;4.90;2.50;;;;;;;;;;5116521;28;20024;-49
2022/07/07 02:35:59;;;;;;;3.22;2.60;;;;;;;;;;5116459;28;20415;-49
2022/07/07 02:38:25;;;;;;;3.28;2.58;;;;;;;;;;5116345;28;20030;-49
2022/07/07 02:40:51;;;;;;;2.72;2.33;;;;;;;;;;5116054;28;20084;-49
2022/07/07 02:43:17;;;;;;;2.33;2.20;;;;;;;;;;5115940;28;20356;-49
2022/07/07 02:45:45;;;;;;;2.70;2.50;;;;;;;;;;5116289;28;20031;-49
2022/07/07 02:48:14;;;;;;;4.93;2.67;;;;;;;;;;5116273;28;20024;-47
2022/07/07 02:50:40;;;;;;;3.78;2.75;;;;;;;;;;5116209;28;20134;-48
2022/07/07 02:53:07;;;;;;;3.17;2.60;;;;;;;;;;5116146;28;20031;-49
2022/07/07 02:55:33;;;;;;;2.60;2.40;;;;;;;;;;5116184;28;20024;-47
2022/07/07 02:57:59;;;;;;;3.10;2.72;;;;;;;;;;5116051;28;20482;-48
2022/07/07 03:00:25;;;;;;;3.20;2.63;;;;;;;;;;5116053;28;20098;-48
2022/07/07 03:02:52;;;;;;;5.00;2.75;;;;;;;;;;5115902;28;20038;-47
2022/07/07 03:05:19;;;;;;;3.30;2.80;;;;;;;;;;5114805;28;20474;-48
2022/07/07 03:07:44;;;;;;;2.75;2.55;;;;;;;;;;5115839;28;20027;-48
2022/07/07 03:10:10;;;;;;;2.70;2.50;;;;;;;;;;5115790;27;20026;-47
2022/07/07 03:12:35;;;;;;;3.75;2.63;;;;;;;;;;5115511;28;20031;-50
2022/07/07 03:15:01;;;;;;;3.38;2.70;;;;;;;;;;5115450;28;20020;-51
2022/07/07 03:17:26;;;;;;;2.85;2.58;;;;;;;;;;5115634;28;20467;-49
2022/07/07 03:19:52;;;;;;;3.22;2.33;;;;;;;;;;5115371;28;20413;-49
2022/07/07 03:22:17;;;;;;;5.32;2.53;;;;;;;;;;5115126;28;20131;-48
2022/07/07 03:24:43;;;;;;;7.68;2.45;;;;;;;;;;5115237;28;20540;-48
2022/07/07 03:27:08;;;;;;;4.30;2.85;;;;;;;;;;5115141;28;20066;-48
2022/07/07 03:29:34;;;;;;;4.47;2.35;;;;;;;;;;5115425;28;20031;-48
2022/07/07 03:31:59;;;;;;;4.20;2.38;;;;;;;;;;5115209;28;20035;-48
2022/07/07 03:34:24;;;;;;;3.63;2.30;;;;;;;;;;5115352;28;20027;-49
2022/07/07 03:36:50;;;;;;;2.50;2.30;;;;;;;;;;5115055;28;20088;-47
2022/07/07 03:39:15;;;;;;;2.45;2.25;;;;;;;;;;5115295;28;20030;-48
2022/07/07 03:41:41;;;;;;;5.55;2.17;;;;;;;;;;5115164;28;20118;-48
2022/07/07 03:44:06;;;;;;;3.08;2.38;;;;;;;;;;5114870;28;20495;-49
2022/07/07 03:46:31;;;;;;;4.00;2.40;;;;;;;;;;5115149;28;20035;-49
2022/07/07 03:48:57;;;;;;;6.20;2.10;;;;;;;;;;5114759;28;20034;-47
2022/07/07 03:51:22;;;;;;;6.70;2.65;;;;;;;;;;5114672;28;20027;-48
2022/07/07 03:53:48;;;;;;;12.77;2.97;;;;;;;;;;5113448;28;20024;-50
2022/07/07 03:56:14;;;;;;;7.32;4.88;;;;;;;;;;5114646;28;20096;-47
2022/07/07 03:58:40;;;;;;;5.00;2.90;;;;;;;;;;5114570;28;20039;-48
2022/07/07 04:01:05;;;;;;;4.10;2.55;;;;;;;;;;5114732;28;20020;-50
2022/07/07 04:03:30;;;;;;;2.70;2.40;;;;;;;;;;5114437;28;20550;-48
2022/07/07 04:05:56;;;;;;;7.32;2.47;;;;;;;;;;5114677;28;20032;-46
2022/07/07 04:08:21;;;;;;;3.50;2.70;;;;;;;;;;5114387;28;20027;-49
2022/07/07 04:10:46;;;;;;;3.10;2.50;;;;;;;;;;5114222;28;20020;-47
2022/07/07 04:13:12;;;;;;;3.63;2.10;;;;;;;;;;5114197;28;20035;-48
2022/07/07 04:15:37;;;;;;;3.10;2.45;;;;;;;;;;5114555;28;20020;-51
2022/07/07 04:18:03;;;;;;;3.22;2.70;;;;;;;;;;5114107;28;20027;-51
2022/07/07 04:20:32;;;;;;;2.65;2.20;;;;;;;;;;5113977;27;20059;-51
2022/07/07 04:22:58;;;;;;;6.07;2.63;;;;;;;;;;5114317;28;20028;-52
2022/07/07 04:25:24;;;;;;;3.45;2.72;;;;;;;;;;5114300;28;20072;-51
2022/07/07 04:27:49;;;;;;;4.13;2.97;;;;;;;;;;5114077;28;20478;-52
2022/07/07 04:30:15;;;;;;;7.88;2.83;;;;;;;;;;5114223;28;20023;-50
2022/07/07 04:32:41;;;;;;;3.88;2.47;;;;;;;;;;5114216;28;20027;-51
2022/07/07 04:35:07;;;;;;;4.95;3.22;;;;;;;;;;5114194;28;20019;-50
2022/07/07 04:37:33;;;;;;;2.92;2.60;;;;;;;;;;5113836;28;20382;-50
2022/07/07 04:39:58;;;;;;;11.93;5.13;;;;;;;;;;5113998;28;20026;-44
2022/07/07 04:42:24;;;;;;;9.13;4.00;;;;;;;;;;5113537;28;20104;-44
2022/07/07 04:44:49;;;;;;;7.10;4.57;;;;;;;;;;5113993;28;20032;-44
2022/07/07 04:47:14;;;;;;;8.68;4.82;;;;;;;;;;5113658;28;20447;-49
2022/07/07 04:49:40;;;;;;;10.18;3.20;;;;;;;;;;5113866;28;20027;-47
2022/07/07 04:52:05;;;;;;;10.20;2.53;;;;;;;;;;5113777;28;20027;-45
2022/07/07 04:54:31;;;;;;;6.95;2.63;;;;;;;;;;5113561;28;20023;-45
2022/07/07 04:56:56;;;;;;;6.78;2.80;;;;;;;;;;5113696;28;20023;-48
2022/07/07 04:59:22;;;;;;;2.40;2.08;;;;;;;;;;5113680;28;20073;-51
2022/07/07 05:01:47;;;;;;;9.50;2.67;;;;;;;;;;5113592;27;20024;-46
2022/07/07 05:04:12;;;;;;;4.95;2.45;;;;;;;;;;5113338;28;20495;-46
2022/07/07 05:06:38;;;;;;;13.05;5.00;;;;;;;;;;5113604;28;20028;-47
2022/07/07 05:09:04;;;;;;;3.85;2.97;;;;;;;;;;5113510;28;20065;-48
2022/07/07 05:11:29;;;;;;;2.63;2.38;;;;;;;;;;5113489;28;20348;-46
2022/07/07 05:13:54;;;;;;;3.13;2.75;;;;;;;;;;5113509;28;20611;-51
2022/07/07 05:16:20;;;;;;;7.55;3.10;;;;;;;;;;5113044;28;20352;-47
2022/07/07 05:18:45;;;;;;;3.20;2.83;;;;;;;;;;5113168;28;20028;-51
2022/07/07 05:21:11;;;;;;;7.28;3.05;;;;;;;;;;5112879;28;20047;-51
2022/07/07 05:23:36;;;;;;;7.68;4.10;;;;;;;;;;5113290;28;20049;-48
2022/07/07 05:26:01;;;;;;;3.38;2.50;;;;;;;;;;5112962;28;20023;-51
2022/07/07 05:28:27;;;;;;;4.22;3.17;;;;;;;;;;5112557;28;20110;-52
2022/07/07 05:30:52;;;;;;;6.40;2.42;;;;;;;;;;5113246;28;20051;-49
2022/07/07 05:33:18;;;;;;;2.60;2.15;;;;;;;;;;5112878;28;20104;-52
2022/07/07 05:35:43;;;;;;;3.50;2.50;;;;;;;;;;5113165;28;20024;-46
2022/07/07 05:38:08;;;;;;;4.70;2.25;;;;;;;;;;5112923;28;20027;-47
2022/07/07 05:40:34;;;;;;;2.70;2.30;;;;;;;;;;5112412;28;20024;-47
2022/07/07 05:42:59;;;;;;;3.45;2.50;;;;;;;;;;5112769;28;20035;-50
2022/07/07 05:45:25;;;;;;;2.42;2.10;;;;;;;;;;5113115;28;20074;-47
2022/07/07 05:47:50;;;;;;;4.45;2.22;;;;;;;;;;5112733;28;20024;-49
2022/07/07 05:50:16;;;;;;;2.78;2.30;;;;;;;;;;5113073;28;20036;-48
2022/07/07 05:52:41;;;;;;;3.42;2.25;;;;;;;;;;5113047;28;20160;-49
2022/07/07 05:55:07;;;;;;;5.53;2.50;;;;;;;;;;5113058;28;20092;-46
2022/07/07 05:57:33;;;;;;;2.80;2.17;;;;;;;;;;5113042;28;20371;-47
2022/07/07 05:59:58;;;;;;;5.53;3.22;;;;;;;;;;5113002;28;20024;-47
2022/07/07 06:02:24;;;;;;;2.55;1.35;;;;;;;;;;5112908;28;20031;-48
2022/07/07 06:04:50;;;;;;;2.60;2.40;;;;;;;;;;5113030;28;20415;-48
2022/07/07 06:07:15;;;;;;;1.80;1.70;;;;;;;;;;5112687;28;20420;-46
2022/07/07 06:09:41;;;;;;;3.45;1.83;;;;;;;;;;5112924;28;20073;-48
2022/07/07 06:12:07;;;;;;;1.55;1.45;;;;;;;;;;5112957;28;20027;-47
2022/07/07 06:14:34;;;;;;;1.80;1.70;;;;;;;;;;5112913;28;20432;-47
2022/07/07 06:16:59;;;;;;;1.77;1.67;;;;;;;;;;5112882;28;20019;-48
2022/07/07 06:19:24;;;;;;;2.63;2.08;;;;;;;;;;5112883;28;20490;-51
2022/07/07 06:21:50;;;;;;;1.88;1.77;;;;;;;;;;5112310;28;20047;-49
2022/07/07 06:24:15;;;;;;;2.50;2.30;;;;;;;;;;5112355;28;20024;-50
2022/07/07 06:26:41;;;;;;;2.00;1.80;;;;;;;;;;5112709;28;20028;-48
2022/07/07 06:29:06;;;;;;;2.38;2.10;;;;;;;;;;5112430;28;20020;-48
2022/07/07 06:31:32;;;;;;;3.55;2.00;;;;;;;;;;5112750;28;20030;-52
2022/07/07 06:33:57;;;;;;;6.50;2.28;;;;;;;;;;5112612;28;20024;-53
2022/07/07 06:36:22;;;;;;;2.17;2.08;;;;;;;;;;5112606;28;20118;-51
2022/07/07 06:38:48;;;;;;;2.60;2.40;;;;;;;;;;5112646;28;20038;-49
2022/07/07 06:41:13;;;;;;;2.88;2.20;;;;;;;;;;5113927;28;20200;-48
2022/07/07 06:43:39;;;;;;;5.20;2.17;;;;;;;;;;5116388;28;20047;-51
2022/07/07 06:46:04;;;;;;;2.83;2.38;;;;;;;;;;5115969;28;20035;-49
2022/07/07 06:48:30;;;;;;;2.60;1.90;;;;;;;;;;5115937;28;20039;-51
2022/07/07 06:50:55;;;;;;;2.28;2.08;;;;;;;;;;5116171;28;20101;-49
2022/07/07 06:53:20;;;;;;;3.60;2.35;;;;;;;;;;5115413;28;20091;-49
2022/07/07 06:55:46;;;;;;;2.13;2.00;;;;;;;;;;5115751;28;20024;-48
2022/07/07 06:58:12;;;;;;;4.28;2.10;;;;;;;;;;5116336;28;20039;-53
2022/07/07 07:00:39;;;;;;;4.28;1.98;;;;;;;;;;5115674;28;20027;-52
2022/07/07 07:03:04;;;;;;;2.20;2.00;;;;;;;;;;5115628;28;20036;-53
2022/07/07 07:05:30;;;;;;;4.15;2.65;;;;;;;;;;5115611;28;20031;-52
2022/07/07 07:07:55;;;;;;;1.85;1.75;;;;;;;;;;5115936;28;20016;-51
2022/07/07 07:10:21;;;;;;;4.25;1.90;;;;;;;;;;5115756;28;20371;-53
2022/07/07 07:12:46;;;;;;;5.28;2.83;;;;;;;;;;5115819;28;20463;-54
2022/07/07 07:15:12;;;;;;;2.78;1.70;;;;;;;;;;5115439;28;20055;-52
2022/07/07 07:17:38;;;;;;;4.72;1.88;;;;;;;;;;5115376;28;20023;-52
2022/07/07 07:20:05;;;;;;;1.85;1.75;;;;;;;;;;5115725;28;20422;-50
2022/07/07 07:22:40;;;;;;;4.15;2.00;;;;;;;;;;5115078;28;20044;-49
2022/07/07 07:25:06;;;;;;;5.93;2.35;;;;;;;;;;5115264;28;20035;-48
2022/07/07 07:27:34;;;;;;;1.63;1.52;;;;;;;;;;5115580;28;20023;-49
2022/07/07 07:29:59;;;;;;;2.92;1.73;;;;;;;;;;5115199;28;20024;-49
2022/07/07 07:32:25;;;;;;;4.20;1.80;;;;;;;;;;5113849;28;20032;-48
2022/07/07 07:34:50;;;;;;;1.75;1.60;;;;;;;;;;5113915;28;20073;-46
2022/07/07 07:37:15;;;;;;;4.05;1.75;;;;;;;;;;5115260;28;20115;-46
2022/07/07 07:39:41;;;;;;;2.28;1.75;;;;;;;;;;5114959;28;20425;-46
2022/07/07 07:42:06;;;;;;;2.63;2.10;;;;;;;;;;5115062;28;20027;-48
2022/07/07 07:47:16;;;;;;;3.08;2.05;;;;;;;;;;5115172;28;20058;-47
2022/07/07 07:49:41;;;;;;;4.20;1.67;;;;;;;;;;5114826;28;20502;-48
2022/07/07 07:52:06;;;;;;;3.60;1.80;;;;;;;;;;5113650;28;20019;-48
2022/07/07 07:54:32;;;;;;;2.13;1.55;;;;;;;;;;5114562;28;20394;-51
2022/07/07 07:56:57;;;;;;;3.53;1.60;;;;;;;;;;5114297;28;20035;-51
2022/07/07 07:59:23;;;;;;;5.22;2.70;;;;;;;;;;5114287;28;20026;-51
2022/07/07 08:01:48;;;;;;;1.63;1.30;;;;;;;;;;5114319;28;20074;-49
2022/07/07 08:04:14;;;;;;;1.60;1.50;;;;;;;;;;5114766;28;20076;-49
2022/07/07 08:06:39;;;;;;;2.55;1.48;;;;;;;;;;5113785;28;20023;-49
2022/07/07 08:09:04;;;;;;;2.42;1.63;;;;;;;;;;5114019;28;20164;-46
2022/07/07 08:11:30;;;;;;;1.50;1.40;;;;;;;;;;5113089;28;20028;-47
2022/07/07 08:13:55;;;;;;;1.98;1.88;;;;;;;;;;5113365;28;20073;-50
2022/07/07 08:16:21;;;;;;;3.35;1.60;;;;;;;;;;5108641;28;20023;-46
2022/07/07 08:18:46;;;;;;;1.83;1.73;;;;;;;;;;5113063;28;20045;-45
2022/07/07 08:21:11;;;;;;;1.80;1.70;;;;;;;;;;5112203;28;20051;-47
2022/07/07 08:23:37;;;;;;;13.07;3.60;;;;;;;;;;5112843;28;20039;-49
2022/07/07 08:26:02;;;;;;;4.35;1.90;;;;;;;;;;5112448;28;20023;-50
2022/07/07 08:28:28;;;;;;;2.08;1.88;;;;;;;;;;5112291;28;20103;-50
2022/07/07 08:30:53;;;;;;;13.30;2.45;;;;;;;;;;5112375;28;20107;-48
2022/07/07 08:33:20;;;;;;;2.42;1.45;;;;;;;;;;5112492;28;20108;-46
2022/07/07 08:35:45;;;;;;;2.42;1.60;;;;;;;;;;5111818;28;20772;-48
2022/07/07 08:38:10;;;;;;;2.08;1.80;;;;;;;;;;5111210;28;20031;-46
2022/07/07 08:40:37;;;;;;;4.05;1.92;;;;;;;;;;5112507;28;20378;-53
2022/07/07 08:43:03;;;;;;;1.75;1.33;;;;;;;;;;5112228;28;20054;-50
2022/07/07 08:45:28;;;;;;;1.85;1.50;;;;;;;;;;5112160;28;20374;-48
2022/07/07 08:47:54;;;;;;;1.52;1.42;;;;;;;;;;5111527;28;20031;-48
2022/07/07 08:50:20;;;;;;;1.50;1.40;;;;;;;;;;5111909;28;20066;-47
2022/07/07 08:52:50;;;;;;;1.52;1.42;;;;;;;;;;5111980;28;20055;-50
2022/07/07 08:55:19;;;;;;;2.10;1.50;;;;;;;;;;5111578;28;20109;-46
2022/07/07 08:57:45;;;;;;;8.38;3.08;;;;;;;;;;5111933;28;20050;-47
2022/07/07 09:00:11;;;;;;;7.28;2.40;;;;;;;;;;5111496;28;20475;-47
2022/07/07 09:02:36;;;;;;;38.95;4.75;;;;;;;;;;5111790;28;20036;-48
2022/07/07 09:05:02;;;;;;;2.25;1.23;;;;;;;;;;5110751;28;20028;-48
2022/07/07 09:07:51;;;;;;;2.00;1.30;;;;;;;;;;5111766;28;20084;-47
2022/07/07 09:10:34;;;;;;;21.05;4.95;;;;;;;;;;5111701;28;20069;-50
2022/07/07 09:13:00;;;;;;;2.70;1.50;;;;;;;;;;5111958;28;20081;-47
2022/07/07 09:15:26;;;;;;;1.30;1.20;;;;;;;;;;5112008;28;20031;-48
2022/07/07 09:17:53;;;;;;;1.48;1.38;;;;;;;;;;5112012;28;20046;-47
2022/07/07 09:20:19;;;;;;;3.83;2.20;;;;;;;;;;5111309;27;20394;-46
2022/07/07 09:22:53;;;;;;;6.53;1.75;;;;;;;;;;5111709;28;20038;-46
2022/07/07 09:25:25;;;;;;;1.90;1.75;;;;;;;;;;5111810;28;20073;-46
2022/07/07 09:27:56;;;;;;;8.88;3.00;;;;;;;;;;5111722;28;20102;-48
2022/07/07 09:30:38;;;;;;;26.02;5.30;;;;;;;;;;5111537;28;20028;-47
2022/07/07 09:33:13;;;;;;;3.58;3.00;;;;;;;;;;5111245;28;20024;-50
2022/07/07 09:38:28;;;;;;;2.65;1.40;;;;;;;;;;5111557;28;20041;-47
2022/07/07 09:40:58;;;;;;;14.98;1.98;;;;;;;;;;5111619;28;20084;-48
2022/07/07 09:43:23;;;;;;;5.07;1.80;;;;;;;;;;5111530;28;20040;-49
2022/07/07 09:46:11;;;;;;;2.20;1.60;;;;;;;;;;5111572;28;20019;-48
2022/07/07 09:48:38;;;;;;;5.18;2.20;;;;;;;;;;5111044;28;20026;-48
2022/07/07 09:51:26;;;;;;;39.63;5.55;;;;;;;;;;5111350;28;20381;-49
2022/07/07 09:53:59;;;;;;;2.22;2.03;;;;;;;;;;5111487;28;20032;-49
2022/07/07 09:56:30;;;;;;;5.15;2.60;;;;;;;;;;5111178;28;20028;-48
2022/07/07 09:58:57;;;;;;;1.88;1.77;;;;;;;;;;5110861;28;20031;-49
2022/07/07 10:01:25;;;;;;;2.15;1.90;;;;;;;;;;5110997;28;20046;-49
2022/07/07 10:03:56;;;;;;;5.38;2.72;;;;;;;;;;5111341;28;20122;-47
2022/07/07 10:06:24;;;;;;;2.70;2.30;;;;;;;;;;5111095;28;20028;-49
2022/07/07 10:08:55;;;;;;;1.95;1.60;;;;;;;;;;5111000;28;20024;-47
2022/07/07 10:11:22;;;;;;;1.58;1.48;;;;;;;;;;5110983;28;20022;-49
2022/07/07 10:13:49;;;;;;;2.60;2.40;;;;;;;;;;5111336;28;20024;-49
2022/07/07 10:16:15;;;;;;;3.28;1.92;;;;;;;;;;5114064;28;20030;-51
2022/07/07 10:18:42;;;;;;;2.28;1.80;;;;;;;;;;5114893;28;20106;-50
2022/07/07 10:21:08;;;;;;;5.35;2.30;;;;;;;;;;5114276;28;20048;-48
2022/07/07 10:23:34;;;;;;;2.83;1.63;;;;;;;;;;5114810;28;20131;-51
2022/07/07 10:26:00;;;;;;;1.88;1.33;;;;;;;;;;5114758;28;20055;-49
2022/07/07 10:28:53;;;;;;;1.75;1.60;;;;;;;;;;5114663;28;20077;-49
2022/07/07 10:31:25;;;;;;;1.90;1.80;;;;;;;;;;5114894;28;20027;-47
2022/07/07 10:34:14;;;;;;;2.00;1.85;;;;;;;;;;5114682;28;20023;-50
2022/07/07 10:36:45;;;;;;;1.93;1.70;;;;;;;;;;5114531;27;20039;-50
2022/07/07 10:39:12;;;;;;;6.35;4.25;;;;;;;;;;5114544;28;20732;-50
2022/07/07 10:41:40;;;;;;;3.17;1.98;;;;;;;;;;5114773;28;20028;-49
2022/07/07 10:44:06;;;;;;;4.55;2.00;;;;;;;;;;5114415;28;20380;-49
2022/07/07 10:46:34;;;;;;;2.45;2.10;;;;;;;;;;5114462;28;20483;-49
2022/07/07 10:49:11;;;;;;;2.00;1.83;;;;;;;;;;5114229;28;20027;-50
2022/07/07 10:51:54;;;;;;;2.88;2.50;;;;;;;;;;5114334;28;20073;-50
2022/07/07 10:54:38;;;;;;;5.28;2.45;;;;;;;;;;5114172;28;20471;-52
2022/07/07 10:57:05;;;;;;;3.30;2.30;;;;;;;;;;5114359;28;20035;-50
2022/07/07 11:00:00;;;;;;;3.13;1.80;;;;;;;;;;5113787;28;20035;-49
2022/07/07 11:02:32;;;;;;;2.20;1.88;;;;;;;;;;5114166;28;20122;-51
2022/07/07 11:05:00;;;;;;;3.50;1.65;;;;;;;;;;5114402;28;20027;-51
2022/07/07 11:07:26;;;;;;;2.10;1.90;;;;;;;;;;5113891;28;20038;-46
2022/07/07 11:10:03;;;;;;;4.22;2.50;;;;;;;;;;5113428;28;20050;-50
2022/07/07 11:12:45;;;;;;;8.88;3.05;;;;;;;;;;5113878;28;20467;-52
2022/07/07 11:15:22;;;;;;;4.53;1.80;;;;;;;;;;5114128;28;20046;-52
2022/07/07 11:18:07;;;;;;;3.65;2.55;;;;;;;;;;5113599;28;20027;-49
2022/07/07 11:20:32;;;;;;;7.65;2.83;;;;;;;;;;5113242;28;20023;-49
2022/07/07 11:23:09;;;;;;;2.15;1.70;;;;;;;;;;5113698;28;20130;-50
2022/07/07 11:25:36;;;;;;;4.10;2.60;;;;;;;;;;5113643;28;20027;-47
2022/07/07 11:28:04;;;;;;;5.88;1.90;;;;;;;;;;5113147;28;20031;-47
2022/07/07 11:30:30;;;;;;;5.57;1.73;;;;;;;;;;5113367;28;20107;-47
2022/07/07 11:32:57;;;;;;;7.00;1.70;;;;;;;;;;5113893;28;20119;-47
2022/07/07 11:35:22;;;;;;;1.65;1.30;;;;;;;;;;5113779;28;20102;-48
2022/07/07 11:37:48;;;;;;;5.07;1.77;;;;;;;;;;5112225;28;20080;-48
2022/07/07 11:40:14;;;;;;;3.30;1.73;;;;;;;;;;5113672;28;20027;-51
2022/07/07 11:42:43;;;;;;;8.13;1.60;;;;;;;;;;5113399;28;20027;-49
2022/07/07 11:45:22;;;;;;;4.47;1.60;;;;;;;;;;5113361;28;20032;-49
2022/07/07 11:47:49;;;;;;;1.83;1.50;;;;;;;;;;5113467;28;20103;-49
2022/07/07 11:50:15;;;;;;;2.75;1.33;;;;;;;;;;5113502;28;20031;-50
2022/07/07 11:52:48;;;;;;;7.85;1.45;;;;;;;;;;5113353;28;20054;-49
2022/07/07 11:55:15;;;;;;;2.15;1.40;;;;;;;;;;5113318;28;20023;-50
2022/07/07 11:57:40;;;;;;;3.35;1.40;;;;;;;;;;5113316;28;20035;-51
2022/07/07 12:00:09;;;;;;;3.10;1.58;;;;;;;;;;5113118;28;20031;-46
2022/07/07 12:02:34;;;;;;;5.57;1.40;;;;;;;;;;5112858;28;20040;-51
2022/07/07 12:05:00;;;;;;;7.07;2.00;;;;;;;;;;5112951;27;20024;-48
2022/07/07 12:07:25;;;;;;;4.72;1.90;;;;;;;;;;5113028;28;20035;-51
2022/07/07 12:09:51;;;;;;;16.10;2.75;;;;;;;;;;5112975;28;20031;-51
2022/07/07 12:12:18;;;;;;;2.45;1.42;;;;;;;;;;5112920;28;20055;-48
2022/07/07 12:14:44;;;;;;;2.90;2.20;;;;;;;;;;5112737;28;20020;-51
2022/07/07 12:17:10;;;;;;;3.53;1.80;;;;;;;;;;5112688;28;20475;-53
2022/07/07 12:19:49;;;;;;;1.88;1.73;;;;;;;;;;5112376;28;20027;-48
2022/07/07 12:22:34;;;;;;;3.70;1.80;;;;;;;;;;5112460;28;20050;-48
2022/07/07 12:25:05;;;;;;;3.05;1.88;;;;;;;;;;5112514;28;20455;-49
2022/07/07 12:27:30;;;;;;;1.70;1.60;;;;;;;;;;5112037;28;20030;-49
2022/07/07 12:30:02;;;;;;;1.67;1.58;;;;;;;;;;5112388;28;20463;-51
2022/07/07 12:32:28;;;;;;;4.30;1.60;;;;;;;;;;5111869;28;20119;-50
2022/07/07 12:34:53;;;;;;;3.22;1.35;;;;;;;;;;5112398;28;20185;-51
2022/07/07 12:37:19;;;;;;;2.75;1.55;;;;;;;;;;5112022;28;20031;-47
2022/07/07 12:39:49;;;;;;;1.85;1.40;;;;;;;;;;5111150;28;20031;-48
2022/07/07 12:42:24;;;;;;;1.85;1.50;;;;;;;;;;5112417;28;20051;-50
2022/07/07 12:44:49;;;;;;;2.00;1.50;;;;;;;;;;5112221;28;20024;-49
2022/07/07 12:47:19;;;;;;;1.65;1.30;;;;;;;;;;5112329;28;20058;-49
2022/07/07 12:49:55;;;;;;;6.72;1.85;;;;;;;;;;5112346;28;20038;-46
2022/07/07 12:52:21;;;;;;;1.50;1.40;;;;;;;;;;5110690;28;20475;-50
2022/07/07 12:54:47;;;;;;;2.78;1.33;;;;;;;;;;5112325;28;20080;-51
2022/07/07 12:57:13;;;;;;;1.40;1.30;;;;;;;;;;5112234;28;20461;-47
2022/07/07 12:59:41;;;;;;;2.78;1.50;;;;;;;;;;5111995;28;20024;-52
2022/07/07 13:02:09;;;;;;;1.67;1.50;;;;;;;;;;5112100;28;20038;-48
2022/07/07 13:04:35;;;;;;;5.53;2.47;;;;;;;;;;5111798;28;20552;-49
2022/07/07 13:07:00;;;;;;;4.07;1.88;;;;;;;;;;5112009;28;20032;-50
2022/07/07 13:09:25;;;;;;;3.55;2.30;;;;;;;;;;5110127;28;20367;-48
2022/07/07 13:11:51;;;;;;;4.75;2.95;;;;;;;;;;5112014;28;20028;-47
2022/07/07 13:14:20;;;;;;;3.50;2.30;;;;;;;;;;5111625;28;20038;-47
2022/07/07 13:16:46;;;;;;;;;;;;;;;;;;5112464;28;20043;-47
2022/07/07 13:19:12;;;;;;;6.78;1.55;;;;;;;;;;5111602;28;19911;-51
2022/07/07 13:21:37;;;;;;;2.13;1.40;;;;;;;;;;5111373;28;20040;-49
2022/07/07 13:24:03;;;;;;;2.67;1.15;;;;;;;;;;5111460;28;20107;-51
2022/07/07 13:26:29;;;;;;;2.38;1.40;;;;;;;;;;5112381;28;20383;-51
2022/07/07 13:28:54;;;;;;;3.05;1.60;;;;;;;;;;5112994;28;20032;-51
2022/07/07 13:31:20;;;;;;;15.30;3.08;;;;;;;;;;5113083;28;20414;-48
2022/07/07 13:33:45;;;;;;;2.55;1.40;;;;;;;;;;5112960;28;20032;-47
2022/07/07 13:36:11;;;;;;;4.90;1.88;;;;;;;;;;5112881;28;20054;-49
2022/07/07 13:38:36;;;;;;;4.50;1.80;;;;;;;;;;5113114;28;20030;-47
2022/07/07 13:41:03;;;;;;;2.50;1.30;;;;;;;;;;5112696;28;20527;-50
2022/07/07 13:43:29;;;;;;;1.60;1.42;;;;;;;;;;5112579;28;20406;-49
2022/07/07 13:45:54;;;;;;;1.58;1.48;;;;;;;;;;5111678;28;20027;-48
2022/07/07 13:48:20;;;;;;;2.35;1.40;;;;;;;;;;5111487;28;20099;-51
2022/07/07 13:50:45;;;;;;;2.47;1.50;;;;;;;;;;5113931;28;20027;-49
2022/07/07 13:53:12;;;;;;;1.40;1.30;;;;;;;;;;5115721;28;20026;-51
2022/07/07 13:55:38;;;;;;;2.75;1.30;;;;;;;;;;5115710;28;20024;-50
2022/07/07 13:58:04;;;;;;;1.63;1.40;;;;;;;;;;5115361;28;20020;-49
2022/07/07 14:00:30;;;;;;;2.88;1.30;;;;;;;;;;5114078;28;20084;-51
2022/07/07 14:02:56;;;;;;;2.35;1.60;;;;;;;;;;5115557;28;20106;-48
2022/07/07 14:05:21;;;;;;;2.53;1.60;;;;;;;;;;5115525;27;20122;-51
2022/07/07 14:07:47;;;;;;;1.67;1.25;;;;;;;;;;5115195;28;20471;-52
2022/07/07 14:10:13;;;;;;;5.10;1.33;;;;;;;;;;5115213;28;20035;-51
2022/07/07 14:12:39;;;;;;;1.45;1.35;;;;;;;;;;5115094;28;20383;-51
2022/07/07 14:15:05;;;;;;;1.27;1.13;;;;;;;;;;5115189;28;20024;-51
2022/07/07 14:17:31;;;;;;;1.50;1.35;;;;;;;;;;5115254;28;20016;-50
2022/07/07 14:19:57;;;;;;;1.80;1.45;;;;;;;;;;5115286;28;20431;-49
2022/07/07 14:22:22;;;;;;;2.17;1.70;;;;;;;;;;5114813;28;20118;-53
2022/07/07 14:24:48;;;;;;;2.10;1.63;;;;;;;;;;5115015;28;20073;-51
2022/07/07 14:27:13;;;;;;;8.07;1.73;;;;;;;;;;5115146;28;20073;-51
2022/07/07 14:29:40;;;;;;;1.40;1.30;;;;;;;;;;5115127;28;20035;-48
2022/07/07 14:32:06;;;;;;;5.00;1.52;;;;;;;;;;5114608;28;20019;-48
2022/07/07 14:34:32;;;;;;;2.33;1.55;;;;;;;;;;5114632;28;20498;-47
2022/07/07 14:36:58;;;;;;;2.30;1.50;;;;;;;;;;5114950;28;20032;-51
2022/07/07 14:39:23;;;;;;;3.90;1.73;;;;;;;;;;5114978;28;20073;-49
2022/07/07 14:41:50;;;;;;;1.92;1.50;;;;;;;;;;5114558;28;20474;-49
2022/07/07 14:44:16;;;;;;;4.93;1.60;;;;;;;;;;5114672;28;20031;-49
2022/07/07 14:46:41;;;;;;;3.10;1.70;;;;;;;;;;5113216;28;20088;-50
2022/07/07 14:49:07;;;;;;;3.58;2.15;;;;;;;;;;5114775;27;20034;-47